createdAt,value
2019-04-19T00:00:37.356Z,19.86
2019-04-19T00:01:18.860Z,19.76
2019-04-19T00:02:04.749Z,19.83
2019-04-19T00:02:43.537Z,19.78
2019-04-19T00:03:27.263Z,19.93
2019-04-19T00:04:04.626Z,19.95
2019-04-19T00:04:46.873Z,19.95
2019-04-19T00:05:29.847Z,19.88
2019-04-19T00:06:11.879Z,19.87
2019-04-19T00:06:46.645Z,19.94
2019-04-19T00:07:27.688Z,19.78
2019-04-19T00:08:19.266Z,19.79
2019-04-19T00:09:03.673Z,19.94
2019-04-19T00:09:38.665Z,19.84
2019-04-19T00:10:21.371Z,19.97
2019-04-19T00:10:56.811Z,19.95
2019-04-19T00:11:38.210Z,19.78
2019-04-19T00:12:24.910Z,19.9
2019-04-19T00:12:56.920Z,19.86
2019-04-19T00:13:33.030Z,19.93
2019-04-19T00:14:14.914Z,19.8
2019-04-19T00:14:54.839Z,19.79
2019-04-19T00:15:36.126Z,19.78
2019-04-19T00:16:15.898Z,19.88
2019-04-19T00:16:57.568Z,19.84
2019-04-19T00:17:38.502Z,19.84
2019-04-19T00:18:20.004Z,19.83
2019-04-19T00:19:19.466Z,19.86
2019-04-19T00:19:55.412Z,19.93
2019-04-19T00:20:36.242Z,19.79
2019-04-19T00:21:18.086Z,19.87
2019-04-19T00:22:08.246Z,19.88
2019-04-19T00:22:38.451Z,19.83
2019-04-19T00:23:15.286Z,19.86
2019-04-19T00:23:47.938Z,19.86
2019-04-19T00:24:25.170Z,19.93
2019-04-19T00:25:07.657Z,19.8
2019-04-19T00:25:47.067Z,19.83
2019-04-19T00:26:27.533Z,19.78
2019-04-19T00:27:08.190Z,19.87
2019-04-19T00:27:54.019Z,19.79
2019-04-19T00:28:39.111Z,19.76
2019-04-19T00:29:17.710Z,19.78
2019-04-19T00:29:57.846Z,19.8
2019-04-19T00:30:42.766Z,19.87
2019-04-19T00:31:24.890Z,19.93
2019-04-19T00:32:11.527Z,19.88
2019-04-19T00:32:44.966Z,19.9
2019-04-19T00:33:25.909Z,19.8
2019-04-19T00:33:58.859Z,19.88
2019-04-19T00:34:37.762Z,19.91
2019-04-19T00:35:17.793Z,19.88
2019-04-19T00:35:58.252Z,19.86
2019-04-19T00:36:38.874Z,19.8
2019-04-19T00:37:20.581Z,19.79
2019-04-19T00:38:06.860Z,19.8
2019-04-19T00:38:53.953Z,19.84
2019-04-19T00:39:35.491Z,19.8
2019-04-19T00:40:19.780Z,19.75
2019-04-19T00:41:02.983Z,19.8
2019-04-19T00:41:35.490Z,19.91
2019-04-19T00:42:20.585Z,19.93
2019-04-19T00:42:56.547Z,19.84
2019-04-19T00:43:44.321Z,19.84
2019-04-19T00:44:27.870Z,19.79
2019-04-19T00:45:07.366Z,19.78
2019-04-19T00:45:41.560Z,19.78
2019-04-19T00:46:24.410Z,19.76
2019-04-19T00:47:06.422Z,19.83
2019-04-19T00:47:47.113Z,19.79
2019-04-19T00:48:29.459Z,19.83
2019-04-19T00:49:02.501Z,19.86
2019-04-19T00:49:44.424Z,19.78
2019-04-19T00:50:23.358Z,19.83
2019-04-19T00:51:08.067Z,19.86
2019-04-19T00:51:48.860Z,19.8
2019-04-19T00:52:36.532Z,19.86
2019-04-19T00:53:10.987Z,19.86
2019-04-19T00:53:45.283Z,19.83
2019-04-19T00:54:24.800Z,19.76
2019-04-19T00:55:09.909Z,19.9
2019-04-19T00:55:52.060Z,19.8
2019-04-19T00:56:33.418Z,19.8
2019-04-19T00:57:06.118Z,19.8
2019-04-19T00:57:48.563Z,19.73
2019-04-19T00:58:28.054Z,19.79
2019-04-19T00:59:08.153Z,19.78
2019-04-19T00:59:48.370Z,19.78
2019-04-19T01:00:30.306Z,19.8
2019-04-19T01:01:13.389Z,19.78
2019-04-19T01:01:53.622Z,19.78
2019-04-19T01:02:28.197Z,19.76
2019-04-19T01:03:10.997Z,19.84
2019-04-19T01:03:50.941Z,19.84
2019-04-19T01:04:31.813Z,19.87
2019-04-19T01:05:15.144Z,19.84
2019-04-19T01:05:58.783Z,19.84
2019-04-19T01:06:40.039Z,19.79
2019-04-19T01:07:18.471Z,19.79
2019-04-19T01:07:53.744Z,19.8
2019-04-19T01:08:35.651Z,19.79
2019-04-19T01:09:28.487Z,19.8
2019-04-19T01:10:09.450Z,19.78
2019-04-19T01:10:46.670Z,19.78
2019-04-19T01:11:27.247Z,19.78
2019-04-19T01:12:10.159Z,19.8
2019-04-19T01:12:52.336Z,19.79
2019-04-19T01:13:36.626Z,19.8
2019-04-19T01:14:13.679Z,19.84
2019-04-19T01:14:49.574Z,19.78
2019-04-19T01:15:28.760Z,19.79
2019-04-19T01:16:15.643Z,19.83
2019-04-19T01:16:50.605Z,19.8
2019-04-19T01:17:36.386Z,19.78
2019-04-19T01:18:20.107Z,19.69
2019-04-19T01:18:53.830Z,19.76
2019-04-19T01:19:27.903Z,19.78
2019-04-19T01:20:10.486Z,19.84
2019-04-19T01:20:48.173Z,19.76
2019-04-19T01:21:30.192Z,19.78
2019-04-19T01:22:16.063Z,19.78
2019-04-19T01:22:58.459Z,19.79
2019-04-19T01:23:31.301Z,19.84
2019-04-19T01:24:13.345Z,19.79
2019-04-19T01:24:54.197Z,19.8
2019-04-19T01:25:33.719Z,19.78
2019-04-19T01:26:15.498Z,19.79
2019-04-19T01:26:57.241Z,19.84
2019-04-19T01:27:37.465Z,19.79
2019-04-19T01:28:20.923Z,19.83
2019-04-19T01:29:02.303Z,19.83
2019-04-19T01:29:43.617Z,19.8
2019-04-19T01:30:26.501Z,19.8
2019-04-19T01:31:02.855Z,19.72
2019-04-19T01:31:40.274Z,19.79
2019-04-19T01:32:21.722Z,19.73
2019-04-19T01:33:02.710Z,19.76
2019-04-19T01:33:44.570Z,19.83
2019-04-19T01:34:26.125Z,19.75
2019-04-19T01:35:07.022Z,19.78
2019-04-19T01:35:49.397Z,19.79
2019-04-19T01:36:32.052Z,19.76
2019-04-19T01:37:11.119Z,19.8
2019-04-19T01:37:53.795Z,19.79
2019-04-19T01:38:31.630Z,19.78
2019-04-19T01:39:21.482Z,19.84
2019-04-19T01:40:03.953Z,19.84
2019-04-19T01:40:53.278Z,19.76
2019-04-19T01:41:23.971Z,19.78
2019-04-19T01:42:00.019Z,19.72
2019-04-19T01:42:48.943Z,19.76
2019-04-19T01:43:34.238Z,19.79
2019-04-19T01:44:15.398Z,19.75
2019-04-19T01:44:53.208Z,19.76
2019-04-19T01:45:28.642Z,19.8
2019-04-19T01:46:09.165Z,19.79
2019-04-19T01:46:52.087Z,19.72
2019-04-19T01:47:36.091Z,19.84
2019-04-19T01:48:10.631Z,19.83
2019-04-19T01:48:50.315Z,19.78
2019-04-19T01:49:32.110Z,19.73
2019-04-19T01:50:12.144Z,19.79
2019-04-19T01:50:57.835Z,19.86
2019-04-19T01:51:42.097Z,19.76
2019-04-19T01:52:29.819Z,19.8
2019-04-19T01:53:03.213Z,19.79
2019-04-19T01:53:37.299Z,19.79
2019-04-19T01:54:21.655Z,19.8
2019-04-19T01:54:57.554Z,19.76
2019-04-19T01:55:31.976Z,19.76
2019-04-19T01:56:10.697Z,19.83
2019-04-19T01:56:53.478Z,19.75
2019-04-19T01:57:30.229Z,19.69
2019-04-19T01:58:14.052Z,19.79
2019-04-19T01:58:55.602Z,19.72
2019-04-19T01:59:37.621Z,19.79
2019-04-19T02:00:14.121Z,19.69
2019-04-19T02:00:56.706Z,19.7
2019-04-19T02:01:35.012Z,19.7
2019-04-19T02:02:17.797Z,19.8
2019-04-19T02:02:59.823Z,19.7
2019-04-19T02:03:40.896Z,19.79
2019-04-19T02:04:21.351Z,19.7
2019-04-19T02:05:03.153Z,19.76
2019-04-19T02:05:43.624Z,19.78
2019-04-19T02:06:26.384Z,19.8
2019-04-19T02:07:00.513Z,19.8
2019-04-19T02:07:40.546Z,19.73
2019-04-19T02:08:22.607Z,19.72
2019-04-19T02:09:03.438Z,19.72
2019-04-19T02:09:58.788Z,19.78
2019-04-19T02:10:40.557Z,19.78
2019-04-19T02:11:11.595Z,19.73
2019-04-19T02:11:53.917Z,19.75
2019-04-19T02:12:39.167Z,19.79
2019-04-19T02:13:16.701Z,19.76
2019-04-19T02:13:57.704Z,19.75
2019-04-19T02:14:37.145Z,19.73
2019-04-19T02:15:14.627Z,19.73
2019-04-19T02:15:52.874Z,19.7
2019-04-19T02:16:32.766Z,19.76
2019-04-19T02:17:15.119Z,19.76
2019-04-19T02:17:54.250Z,19.69
2019-04-19T02:18:35.415Z,19.69
2019-04-19T02:19:19.377Z,19.75
2019-04-19T02:20:00.408Z,19.76
2019-04-19T02:20:41.232Z,19.69
2019-04-19T02:21:22.395Z,19.78
2019-04-19T02:22:00.005Z,19.75
2019-04-19T02:22:39.835Z,19.75
2019-04-19T02:23:20.140Z,19.69
2019-04-19T02:24:02.496Z,19.73
2019-04-19T02:24:45.732Z,19.69
2019-04-19T02:25:25.152Z,19.78
2019-04-19T02:26:06.381Z,19.7
2019-04-19T02:26:46.204Z,19.73
2019-04-19T02:27:29.705Z,19.72
2019-04-19T02:28:06.163Z,19.76
2019-04-19T02:28:45.825Z,19.76
2019-04-19T02:29:28.760Z,19.7
2019-04-19T02:30:13.825Z,19.78
2019-04-19T02:31:06.009Z,19.75
2019-04-19T02:31:53.472Z,19.69
2019-04-19T02:32:27.441Z,19.7
2019-04-19T02:33:14.736Z,19.73
2019-04-19T02:34:03.089Z,19.68
2019-04-19T02:34:46.997Z,19.75
2019-04-19T02:35:59.596Z,19.76
2019-04-19T02:36:51.736Z,19.7
2019-04-19T02:37:18.325Z,19.76
2019-04-19T02:37:56.945Z,19.7
2019-04-19T02:38:46.114Z,19.76
2019-04-19T02:40:04.087Z,19.7
2019-04-19T02:41:37.977Z,19.7
2019-04-19T02:42:15.753Z,19.69
2019-04-19T02:42:44.145Z,19.7
2019-04-19T02:43:35.496Z,19.72
2019-04-19T02:44:10.021Z,19.75
2019-04-19T02:45:03.538Z,19.58
2019-04-19T02:45:49.042Z,19.68
2019-04-19T02:46:22.730Z,19.73
2019-04-19T02:46:57.628Z,19.72
2019-04-19T02:48:15.836Z,19.76
2019-04-19T02:49:50.915Z,19.69
2019-04-19T02:51:36.045Z,19.7
2019-04-19T02:52:56.057Z,19.68
2019-04-19T02:53:38.780Z,19.73
2019-04-19T02:55:42.866Z,19.72
2019-04-19T02:56:35.641Z,19.73
2019-04-19T02:58:23.404Z,19.69
2019-04-19T02:59:08.632Z,19.65
2019-04-19T03:00:03.356Z,19.68
2019-04-19T03:00:41.664Z,19.7
2019-04-19T03:01:18.446Z,19.75
2019-04-19T03:01:54.968Z,19.73
2019-04-19T03:03:05.628Z,19.69
2019-04-19T03:03:46.385Z,19.7
2019-04-19T03:05:45.120Z,19.75
2019-04-19T03:06:21.450Z,19.75
2019-04-19T03:06:54.230Z,19.69
2019-04-19T03:07:30.225Z,19.73
2019-04-19T03:08:10.515Z,19.7
2019-04-19T03:08:52.129Z,19.6
2019-04-19T03:09:36.200Z,19.72
2019-04-19T03:10:17.577Z,19.68
2019-04-19T03:11:05.939Z,19.7
2019-04-19T03:11:51.492Z,19.69
2019-04-19T03:12:36.609Z,19.66
2019-04-19T03:13:12.588Z,19.69
2019-04-19T03:13:52.854Z,19.66
2019-04-19T03:14:29.029Z,19.72
2019-04-19T03:15:09.321Z,19.66
2019-04-19T03:16:09.595Z,19.61
2019-04-19T03:16:36.696Z,19.68
2019-04-19T03:17:17.202Z,19.65
2019-04-19T03:17:55.503Z,19.63
2019-04-19T03:18:38.374Z,19.65
2019-04-19T03:19:13.173Z,19.65
2019-04-19T03:19:59.652Z,19.68
2019-04-19T03:20:34.452Z,19.65
2019-04-19T03:21:24.937Z,19.69
2019-04-19T03:21:55.846Z,19.72
2019-04-19T03:22:42.012Z,19.69
2019-04-19T03:23:21.683Z,19.65
2019-04-19T03:24:04.665Z,19.7
2019-04-19T03:24:46.447Z,19.69
2019-04-19T03:25:22.649Z,19.73
2019-04-19T03:25:58.823Z,19.61
2019-04-19T03:26:45.599Z,19.68
2019-04-19T03:27:17.735Z,19.7
2019-04-19T03:28:03.125Z,19.7
2019-04-19T03:28:40.382Z,19.66
2019-04-19T03:29:19.710Z,19.65
2019-04-19T03:30:05.240Z,19.65
2019-04-19T03:31:00.843Z,19.73
2019-04-19T03:31:58.576Z,19.68
2019-04-19T03:32:34.590Z,19.66
2019-04-19T03:34:30.087Z,19.61
2019-04-19T03:35:00.590Z,19.69
2019-04-19T03:35:43.161Z,19.69
2019-04-19T03:36:19.580Z,19.7
2019-04-19T03:36:54.576Z,19.65
2019-04-19T03:37:43.609Z,19.7
2019-04-19T03:38:23.704Z,19.63
2019-04-19T03:39:03.719Z,19.69
2019-04-19T03:39:43.822Z,19.68
2019-04-19T03:40:27.975Z,19.69
2019-04-19T03:41:02.436Z,19.72
2019-04-19T03:41:56.002Z,19.6
2019-04-19T03:42:34.749Z,19.65
2019-04-19T03:43:06.238Z,19.66
2019-04-19T03:43:47.109Z,19.68
2019-04-19T03:44:24.934Z,19.66
2019-04-19T03:45:21.740Z,19.66
2019-04-19T03:45:49.848Z,19.72
2019-04-19T03:46:25.935Z,19.66
2019-04-19T03:47:14.854Z,19.68
2019-04-19T03:47:56.541Z,19.68
2019-04-19T03:48:32.532Z,19.69
2019-04-19T03:49:23.337Z,19.61
2019-04-19T03:49:52.071Z,19.57
2019-04-19T03:50:31.607Z,19.69
2019-04-19T03:51:13.337Z,19.63
2019-04-19T03:52:03.035Z,19.65
2019-04-19T03:52:36.768Z,19.63
2019-04-19T03:53:17.215Z,19.68
2019-04-19T03:53:59.989Z,19.66
2019-04-19T03:54:38.588Z,19.61
2019-04-19T03:55:18.759Z,19.66
2019-04-19T03:56:06.142Z,19.66
2019-04-19T03:56:37.571Z,19.6
2019-04-19T03:57:18.249Z,19.6
2019-04-19T03:57:54.701Z,19.69
2019-04-19T03:58:28.760Z,19.63
2019-04-19T03:59:07.664Z,19.6
2019-04-19T03:59:48.363Z,19.6
2019-04-19T04:00:30.064Z,19.68
2019-04-19T04:01:10.790Z,19.69
2019-04-19T04:01:54.410Z,19.68
2019-04-19T04:02:36.717Z,19.66
2019-04-19T04:03:19.424Z,19.61
2019-04-19T04:04:00.352Z,19.66
2019-04-19T04:04:35.264Z,19.63
2019-04-19T04:05:17.209Z,19.73
2019-04-19T04:05:56.512Z,19.65
2019-04-19T04:06:37.779Z,19.61
2019-04-19T04:07:21.929Z,19.66
2019-04-19T04:08:04.268Z,19.69
2019-04-19T04:08:45.947Z,19.57
2019-04-19T04:09:19.004Z,19.68
2019-04-19T04:10:01.155Z,19.58
2019-04-19T04:10:42.698Z,19.6
2019-04-19T04:11:24.692Z,19.69
2019-04-19T04:12:16.942Z,19.63
2019-04-19T04:12:52.402Z,19.61
2019-04-19T04:13:32.457Z,19.58
2019-04-19T04:14:14.829Z,19.66
2019-04-19T04:14:56.479Z,19.61
2019-04-19T04:15:41.423Z,19.63
2019-04-19T04:16:18.642Z,19.73
2019-04-19T04:16:51.655Z,19.6
2019-04-19T04:17:28.898Z,19.58
2019-04-19T04:18:09.177Z,19.61
2019-04-19T04:18:51.037Z,19.61
2019-04-19T04:19:31.474Z,19.6
2019-04-19T04:20:11.650Z,19.57
2019-04-19T04:20:55.437Z,19.65
2019-04-19T04:21:39.003Z,19.55
2019-04-19T04:22:20.765Z,19.6
2019-04-19T04:23:01.786Z,19.63
2019-04-19T04:23:40.900Z,19.58
2019-04-19T04:24:24.515Z,19.65
2019-04-19T04:25:05.946Z,19.68
2019-04-19T04:25:48.309Z,19.66
2019-04-19T04:26:24.365Z,19.72
2019-04-19T04:27:07.543Z,19.73
2019-04-19T04:27:53.015Z,19.58
2019-04-19T04:28:32.415Z,19.6
2019-04-19T04:29:09.140Z,19.61
2019-04-19T04:29:52.288Z,19.63
2019-04-19T04:30:31.576Z,19.61
2019-04-19T04:31:14.994Z,19.58
2019-04-19T04:31:57.841Z,19.6
2019-04-19T04:32:39.157Z,19.63
2019-04-19T04:33:14.718Z,19.61
2019-04-19T04:33:56.560Z,19.65
2019-04-19T04:34:40.662Z,19.65
2019-04-19T04:35:23.784Z,19.63
2019-04-19T04:36:11.513Z,19.63
2019-04-19T04:36:49.280Z,19.57
2019-04-19T04:37:24.397Z,19.57
2019-04-19T04:38:03.588Z,19.63
2019-04-19T04:38:37.755Z,19.69
2019-04-19T04:39:13.478Z,19.58
2019-04-19T04:39:53.956Z,19.65
2019-04-19T04:40:35.836Z,19.6
2019-04-19T04:41:21.707Z,19.65
2019-04-19T04:42:07.724Z,19.61
2019-04-19T04:42:43.199Z,19.63
2019-04-19T04:43:31.027Z,19.66
2019-04-19T04:44:13.253Z,19.58
2019-04-19T04:45:08.876Z,19.63
2019-04-19T04:45:38.349Z,19.6
2019-04-19T04:46:26.694Z,19.6
2019-04-19T04:47:01.872Z,19.63
2019-04-19T04:47:39.207Z,19.63
2019-04-19T04:48:24.895Z,19.61
2019-04-19T04:49:03.806Z,19.66
2019-04-19T04:49:47.481Z,19.54
2019-04-19T04:50:30.203Z,19.57
2019-04-19T04:51:04.268Z,19.63
2019-04-19T04:51:44.080Z,19.55
2019-04-19T04:52:16.769Z,19.61
2019-04-19T04:52:50.733Z,19.66
2019-04-19T04:53:30.040Z,19.65
2019-04-19T04:54:10.604Z,19.63
2019-04-19T04:54:52.424Z,19.66
2019-04-19T04:55:32.629Z,19.58
2019-04-19T04:56:13.884Z,19.55
2019-04-19T04:57:00.992Z,19.55
2019-04-19T04:57:42.327Z,19.55
2019-04-19T04:58:23.059Z,19.51
2019-04-19T04:58:58.229Z,19.66
2019-04-19T04:59:37.935Z,19.61
2019-04-19T05:00:20.015Z,19.58
2019-04-19T05:01:04.725Z,19.6
2019-04-19T05:01:50.563Z,19.57
2019-04-19T05:02:31.231Z,19.55
2019-04-19T05:03:16.473Z,19.6
2019-04-19T05:03:57.886Z,19.63
2019-04-19T05:04:32.923Z,19.58
2019-04-19T05:05:19.322Z,19.6
2019-04-19T05:06:06.093Z,19.61
2019-04-19T05:06:38.598Z,19.63
2019-04-19T05:07:27.896Z,19.55
2019-04-19T05:08:08.461Z,19.58
2019-04-19T05:08:44.787Z,19.58
2019-04-19T05:09:27.755Z,19.6
2019-04-19T05:10:05.977Z,19.58
2019-04-19T05:10:42.833Z,19.57
2019-04-19T05:11:24.237Z,19.61
2019-04-19T05:12:12.297Z,19.55
2019-04-19T05:13:10.265Z,19.63
2019-04-19T05:13:27.215Z,19.58
2019-04-19T05:14:11.016Z,19.61
2019-04-19T05:14:48.811Z,19.6
2019-04-19T05:15:31.669Z,19.65
2019-04-19T05:16:20.887Z,19.51
2019-04-19T05:16:57.534Z,19.6
2019-04-19T05:17:45.773Z,19.58
2019-04-19T05:18:21.082Z,19.57
2019-04-19T05:18:53.485Z,19.55
2019-04-19T05:19:46.181Z,19.63
2019-04-19T05:20:16.807Z,19.63
2019-04-19T05:20:55.332Z,19.51
2019-04-19T05:21:39.903Z,19.65
2019-04-19T05:22:17.859Z,19.63
2019-04-19T05:23:08.052Z,19.63
2019-04-19T05:23:45.238Z,19.61
2019-04-19T05:24:25.181Z,19.57
2019-04-19T05:25:11.342Z,19.55
2019-04-19T05:25:44.153Z,19.5
2019-04-19T05:27:50.032Z,19.55
2019-04-19T05:28:27.167Z,19.57
2019-04-19T05:29:05.943Z,19.6
2019-04-19T05:29:38.742Z,19.55
2019-04-19T05:30:13.292Z,19.61
2019-04-19T05:31:00.318Z,19.58
2019-04-19T05:31:41.023Z,19.6
2019-04-19T05:32:22.990Z,19.58
2019-04-19T05:33:06.627Z,19.6
2019-04-19T05:33:47.074Z,19.66
2019-04-19T05:34:36.017Z,19.58
2019-04-19T05:35:11.750Z,19.53
2019-04-19T05:35:56.707Z,19.48
2019-04-19T05:36:38.261Z,19.5
2019-04-19T05:38:30.262Z,19.5
2019-04-19T05:39:24.843Z,19.54
2019-04-19T05:39:54.122Z,19.58
2019-04-19T05:40:27.599Z,19.55
2019-04-19T05:41:02.203Z,19.63
2019-04-19T05:41:47.505Z,19.6
2019-04-19T05:42:34.118Z,19.57
2019-04-19T05:43:12.504Z,19.47
2019-04-19T05:44:04.392Z,19.55
2019-04-19T05:44:54.768Z,19.55
2019-04-19T05:45:25.967Z,19.54
2019-04-19T05:46:03.382Z,19.5
2019-04-19T05:46:41.484Z,19.57
2019-04-19T05:47:18.214Z,19.54
2019-04-19T05:47:48.985Z,19.53
2019-04-19T05:48:33.170Z,19.48
2019-04-19T05:49:14.765Z,19.5
2019-04-19T05:49:59.576Z,19.5
2019-04-19T05:50:39.096Z,19.55
2019-04-19T05:51:27.369Z,19.51
2019-04-19T05:51:59.349Z,19.5
2019-04-19T05:52:42.111Z,19.54
2019-04-19T05:53:16.381Z,19.57
2019-04-19T05:53:51.609Z,19.58
2019-04-19T05:54:27.873Z,19.54
2019-04-19T05:55:08.689Z,19.51
2019-04-19T05:55:49.842Z,19.54
2019-04-19T05:56:30.725Z,19.47
2019-04-19T05:57:30.755Z,19.47
2019-04-19T05:58:05.508Z,19.57
2019-04-19T05:58:45.617Z,19.47
2019-04-19T05:59:18.692Z,19.46
2019-04-19T06:00:01.558Z,19.53
2019-04-19T06:00:51.275Z,19.51
2019-04-19T06:01:35.957Z,19.57
2019-04-19T06:02:09.728Z,19.5
2019-04-19T06:02:49.629Z,19.48
2019-04-19T06:03:26.950Z,19.46
2019-04-19T06:04:16.688Z,19.48
2019-04-19T06:05:05.659Z,19.5
2019-04-19T06:05:42.104Z,19.55
2019-04-19T06:06:25.788Z,19.48
2019-04-19T06:07:01.415Z,19.54
2019-04-19T06:07:38.931Z,19.53
2019-04-19T06:08:12.079Z,19.55
2019-04-19T06:08:44.407Z,19.51
2019-04-19T06:09:24.711Z,19.48
2019-04-19T06:10:07.957Z,19.53
2019-04-19T06:10:52.420Z,19.53
2019-04-19T06:11:32.534Z,19.51
2019-04-19T06:12:12.294Z,19.42
2019-04-19T06:12:55.446Z,19.53
2019-04-19T06:13:29.734Z,19.53
2019-04-19T06:14:31.578Z,19.48
2019-04-19T06:15:13.136Z,19.46
2019-04-19T06:15:53.763Z,19.54
2019-04-19T06:16:30.188Z,19.54
2019-04-19T06:17:05.066Z,19.54
2019-04-19T06:17:50.647Z,19.47
2019-04-19T06:18:27.833Z,19.54
2019-04-19T06:19:16.471Z,19.53
2019-04-19T06:19:50.282Z,19.5
2019-04-19T06:20:33.548Z,19.54
2019-04-19T06:21:19.444Z,19.51
2019-04-19T06:21:52.995Z,19.55
2019-04-19T06:23:18.826Z,19.51
2019-04-19T06:23:57.918Z,19.5
2019-04-19T06:24:36.150Z,19.54
2019-04-19T06:25:24.429Z,19.5
2019-04-19T06:26:11.057Z,19.54
2019-04-19T06:27:35.088Z,19.55
2019-04-19T06:28:56.966Z,19.51
2019-04-19T06:29:30.941Z,19.5
2019-04-19T06:30:09.972Z,19.51
2019-04-19T06:30:45.294Z,19.54
2019-04-19T06:31:49.919Z,19.51
2019-04-19T06:32:07.192Z,19.46
2019-04-19T06:32:48.925Z,19.53
2019-04-19T06:33:31.411Z,19.51
2019-04-19T06:34:08.648Z,19.54
2019-04-19T06:34:48.937Z,19.48
2019-04-19T06:35:23.441Z,19.46
2019-04-19T06:35:59.307Z,19.54
2019-04-19T06:36:35.420Z,19.51
2019-04-19T06:37:21.102Z,19.54
2019-04-19T06:37:56.909Z,19.5
2019-04-19T06:38:37.924Z,19.51
2019-04-19T06:39:18.396Z,19.54
2019-04-19T06:40:08.022Z,19.5
2019-04-19T06:40:48.918Z,19.54
2019-04-19T06:41:23.729Z,19.54
2019-04-19T06:42:06.954Z,19.54
2019-04-19T06:42:49.757Z,19.53
2019-04-19T06:43:34.600Z,19.5
2019-04-19T06:44:12.612Z,19.57
2019-04-19T06:45:02.763Z,19.54
2019-04-19T06:45:39.852Z,19.61
2019-04-19T06:46:19.794Z,19.51
2019-04-19T06:47:00.431Z,19.43
2019-04-19T06:47:36.057Z,19.5
2019-04-19T06:48:14.196Z,19.5
2019-04-19T06:48:57.341Z,19.5
2019-04-19T06:49:32.426Z,19.51
2019-04-19T06:50:14.917Z,19.53
2019-04-19T06:50:54.512Z,19.51
2019-04-19T06:51:40.575Z,19.47
2019-04-19T06:52:20.821Z,19.54
2019-04-19T06:52:55.301Z,19.5
2019-04-19T06:53:40.872Z,19.53
2019-04-19T06:54:24.650Z,19.57
2019-04-19T06:54:57.856Z,19.53
2019-04-19T06:55:42.978Z,19.5
2019-04-19T06:56:25.577Z,19.54
2019-04-19T06:57:09.028Z,19.51
2019-04-19T06:57:49.965Z,19.51
2019-04-19T06:58:24.703Z,19.55
2019-04-19T06:59:09.917Z,19.51
2019-04-19T06:59:57.570Z,19.5
2019-04-19T07:00:38.763Z,19.5
2019-04-19T07:01:14.234Z,19.48
2019-04-19T07:01:49.603Z,19.5
2019-04-19T07:02:26.145Z,19.43
2019-04-19T07:03:08.023Z,19.48
2019-04-19T07:03:47.046Z,19.53
2019-04-19T07:04:27.646Z,19.42
2019-04-19T07:05:22.266Z,19.53
2019-04-19T07:06:05.726Z,19.51
2019-04-19T07:06:42.518Z,19.53
2019-04-19T07:07:29.583Z,19.57
2019-04-19T07:08:17.536Z,19.48
2019-04-19T07:09:36.916Z,19.54
2019-04-19T07:10:16.423Z,19.58
2019-04-19T07:10:55.881Z,19.51
2019-04-19T07:11:30.242Z,19.57
2019-04-19T07:12:18.165Z,19.54
2019-04-19T07:12:54.960Z,19.46
2019-04-19T07:13:27.325Z,19.54
2019-04-19T07:14:05.402Z,19.42
2019-04-19T07:14:53.323Z,19.5
2019-04-19T07:15:49.582Z,19.48
2019-04-19T07:16:24.499Z,19.55
2019-04-19T07:17:00.955Z,19.5
2019-04-19T07:17:37.473Z,19.5
2019-04-19T07:18:17.414Z,19.48
2019-04-19T07:18:55.459Z,19.47
2019-04-19T07:19:43.652Z,19.48
2019-04-19T07:20:19.582Z,19.48
2019-04-19T07:21:05.995Z,19.53
2019-04-19T07:21:42.075Z,19.53
2019-04-19T07:22:19.188Z,19.43
2019-04-19T07:23:02.192Z,19.47
2019-04-19T07:23:48.658Z,19.48
2019-04-19T07:24:33.226Z,19.5
2019-04-19T07:25:18.147Z,19.53
2019-04-19T07:25:53.834Z,19.5
2019-04-19T07:26:33.122Z,19.5
2019-04-19T07:27:05.696Z,19.48
2019-04-19T07:27:43.876Z,19.5
2019-04-19T07:28:20.044Z,19.5
2019-04-19T07:28:55.640Z,19.5
2019-04-19T07:29:35.808Z,19.51
2019-04-19T07:30:15.920Z,19.48
2019-04-19T07:31:01.397Z,19.53
2019-04-19T07:31:38.496Z,19.4
2019-04-19T07:32:25.169Z,19.54
2019-04-19T07:33:05.179Z,19.42
2019-04-19T07:33:49.940Z,19.5
2019-04-19T07:34:36.943Z,19.42
2019-04-19T07:35:13.093Z,19.51
2019-04-19T07:36:00.333Z,19.42
2019-04-19T07:36:44.269Z,19.5
2019-04-19T07:37:18.291Z,19.48
2019-04-19T07:38:10.662Z,19.54
2019-04-19T07:38:45.494Z,19.46
2019-04-19T07:39:23.702Z,19.46
2019-04-19T07:40:48.459Z,19.58
2019-04-19T07:41:26.562Z,19.53
2019-04-19T07:42:10.576Z,19.47
2019-04-19T07:42:43.534Z,19.51
2019-04-19T07:43:23.446Z,19.47
2019-04-19T07:44:02.274Z,19.58
2019-04-19T07:44:40.941Z,19.43
2019-04-19T07:45:16.450Z,19.54
2019-04-19T07:46:13.767Z,19.42
2019-04-19T07:46:49.861Z,19.46
2019-04-19T07:47:26.040Z,19.53
2019-04-19T07:48:00.680Z,19.39
2019-04-19T07:48:36.543Z,19.48
2019-04-19T07:49:18.889Z,19.46
2019-04-19T07:50:08.024Z,19.4
2019-04-19T07:50:45.272Z,19.5
2019-04-19T07:51:26.385Z,19.47
2019-04-19T07:52:08.984Z,19.51
2019-04-19T07:52:50.422Z,19.51
2019-04-19T07:54:09.538Z,19.38
2019-04-19T07:54:46.667Z,19.46
2019-04-19T07:55:24.338Z,19.46
2019-04-19T07:56:17.222Z,19.46
2019-04-19T07:56:55.572Z,19.5
2019-04-19T07:59:09.844Z,19.43
2019-04-19T07:59:54.314Z,19.46
2019-04-19T08:01:14.831Z,19.43
2019-04-19T08:02:44.922Z,19.43
2019-04-19T08:03:24.298Z,19.38
2019-04-19T08:04:08.499Z,19.4
2019-04-19T08:05:14.963Z,19.47
2019-04-19T08:06:27.377Z,19.39
2019-04-19T08:08:06.389Z,19.46
2019-04-19T08:09:23.545Z,19.46
2019-04-19T08:10:03.273Z,19.5
2019-04-19T08:11:35.498Z,19.4
2019-04-19T08:14:07.365Z,19.48
2019-04-19T08:27:26.455Z,19.47
2019-04-19T08:28:12.843Z,19.4
2019-04-19T08:28:51.733Z,19.48
2019-04-19T08:29:34.927Z,19.4
2019-04-19T08:30:09.115Z,19.47
2019-04-19T08:30:50.263Z,19.46
2019-04-19T08:31:25.952Z,19.47
2019-04-19T08:32:06.956Z,19.48
2019-04-19T08:32:47.533Z,19.46
2019-04-19T08:33:29.588Z,19.4
2019-04-19T08:34:13.292Z,19.42
2019-04-19T08:34:55.480Z,19.5
2019-04-19T08:35:31.769Z,19.51
2019-04-19T08:36:14.241Z,19.4
2019-04-19T08:36:58.404Z,19.5
2019-04-19T08:37:37.626Z,19.42
2019-04-19T08:38:19.733Z,19.51
2019-04-19T08:39:11.488Z,19.47
2019-04-19T08:39:48.882Z,19.57
2019-04-19T08:40:32.029Z,19.51
2019-04-19T08:41:08.777Z,19.4
2019-04-19T08:42:02.188Z,19.47
2019-04-19T08:42:34.094Z,19.47
2019-04-19T08:43:14.918Z,19.51
2019-04-19T08:43:54.522Z,19.53
2019-04-19T08:44:33.634Z,19.47
2019-04-19T08:45:06.397Z,19.43
2019-04-19T08:45:42.483Z,19.43
2019-04-19T08:46:23.950Z,19.42
2019-04-19T08:47:04.070Z,19.48
2019-04-19T08:47:55.691Z,19.46
2019-04-19T08:48:35.158Z,19.5
2019-04-19T08:49:11.823Z,19.46
2019-04-19T08:49:49.566Z,19.42
2019-04-19T08:50:28.659Z,19.48
2019-04-19T08:51:09.975Z,19.55
2019-04-19T08:51:50.599Z,19.47
2019-04-19T08:52:33.435Z,19.42
2019-04-19T08:53:26.464Z,19.51
2019-04-19T08:54:09.023Z,19.39
2019-04-19T08:54:52.007Z,19.4
2019-04-19T08:55:28.670Z,19.38
2019-04-19T08:56:07.848Z,19.47
2019-04-19T08:56:44.792Z,19.46
2019-04-19T08:57:19.509Z,19.42
2019-04-19T08:58:01.582Z,19.5
2019-04-19T08:58:54.225Z,19.43
2019-04-19T09:00:22.803Z,19.53
2019-04-19T09:01:03.298Z,19.47
2019-04-19T09:01:44.308Z,19.51
2019-04-19T09:02:20.718Z,19.53
2019-04-19T09:02:53.680Z,19.48
2019-04-19T09:03:45.043Z,19.54
2019-04-19T09:04:23.254Z,19.43
2019-04-19T09:05:03.841Z,19.42
2019-04-19T09:05:39.298Z,19.51
2019-04-19T09:07:50.898Z,19.53
2019-04-19T09:08:27.779Z,19.51
2019-04-19T09:09:00.517Z,19.46
2019-04-19T09:10:01.069Z,19.5
2019-04-19T09:10:33.162Z,19.51
2019-04-19T09:11:04.979Z,19.42
2019-04-19T09:11:53.303Z,19.5
2019-04-19T09:12:30.497Z,19.53
2019-04-19T09:13:55.390Z,19.54
2019-04-19T09:14:35.106Z,19.55
2019-04-19T09:15:12.417Z,19.46
2019-04-19T09:15:56.933Z,19.53
2019-04-19T09:16:34.417Z,19.46
2019-04-19T09:17:18.615Z,19.47
2019-04-19T09:18:17.746Z,19.46
2019-04-19T09:18:45.123Z,19.48
2019-04-19T09:19:24.262Z,19.5
2019-04-19T09:20:09.935Z,19.5
2019-04-19T09:20:38.421Z,19.46
2019-04-19T09:21:17.972Z,19.47
2019-04-19T09:21:57.623Z,19.55
2019-04-19T09:22:39.191Z,19.5
2019-04-19T09:23:20.769Z,19.54
2019-04-19T09:23:54.281Z,19.51
2019-04-19T09:24:35.325Z,19.48
2019-04-19T09:25:21.305Z,19.55
2019-04-19T09:25:59.449Z,19.5
2019-04-19T09:26:44.434Z,19.57
2019-04-19T09:27:37.170Z,19.54
2019-04-19T09:28:14.884Z,19.47
2019-04-19T09:28:48.546Z,19.5
2019-04-19T09:29:33.380Z,19.47
2019-04-19T09:30:16.091Z,19.53
2019-04-19T09:30:51.987Z,19.48